createdAt,value
2019-01-17T00:00:07.973Z,80.27
2019-01-17T00:01:08.217Z,80.75
2019-01-17T00:02:08.207Z,80.08
2019-01-17T00:03:08.196Z,80.56
2019-01-17T00:04:07.939Z,80.27
2019-01-17T00:05:07.927Z,80.46
2019-01-17T00:06:08.192Z,80.18
2019-01-17T00:07:08.158Z,80.46
2019-01-17T00:08:08.143Z,80.27
2019-01-17T00:09:07.893Z,80.65
2019-01-17T00:10:08.128Z,80.56
2019-01-17T00:11:08.120Z,80.65
2019-01-17T00:12:07.861Z,80.84
2019-01-17T00:13:08.100Z,81.18
2019-01-17T00:14:07.841Z,80.94
2019-01-17T00:15:08.084Z,81.09
2019-01-17T00:16:08.078Z,81.51
2019-01-17T00:17:08.060Z,81.47
2019-01-17T00:18:07.807Z,81.56
2019-01-17T00:19:08.051Z,82.23
2019-01-17T00:20:08.048Z,82.7
2019-01-17T00:21:07.781Z,82.32
2019-01-17T00:22:07.769Z,82.79
2019-01-17T00:23:07.824Z,83.55
2019-01-17T00:24:08.001Z,84.78
2019-01-17T00:25:07.762Z,84.69
2019-01-17T00:26:08.028Z,83.94
2019-01-17T00:27:08.032Z,83.94
2019-01-17T00:28:07.956Z,84.22
2019-01-17T00:29:08.323Z,84.31
2019-01-17T00:30:07.941Z,83.94
2019-01-17T00:31:07.941Z,83.74
2019-01-17T00:32:07.923Z,84.31
2019-01-17T00:33:07.911Z,84.12
2019-01-17T00:34:07.908Z,84.31
2019-01-17T00:35:07.906Z,84.5
2019-01-17T00:36:07.638Z,84.5
2019-01-17T00:37:07.641Z,83.74
2019-01-17T00:38:07.619Z,83.65
2019-01-17T00:39:07.631Z,83.17
2019-01-17T00:40:07.596Z,83.46
2019-01-17T00:41:07.854Z,82.79
2019-01-17T00:42:07.825Z,82.51
2019-01-17T00:43:07.576Z,82.32
2019-01-17T00:44:07.560Z,82.7
2019-01-17T00:45:07.563Z,82.36
2019-01-17T00:46:07.802Z,82.08
2019-01-17T00:47:07.784Z,82.36
2019-01-17T00:48:07.532Z,82.51
2019-01-17T00:49:07.518Z,82.23
2019-01-17T00:50:07.507Z,81.75
2019-01-17T00:51:07.745Z,82.7
2019-01-17T00:52:07.746Z,82.7
2019-01-17T00:53:07.471Z,82.32
2019-01-17T00:54:11.520Z,82.51
2019-01-17T00:55:07.453Z,83.27
2019-01-17T00:56:07.690Z,82.51
2019-01-17T00:57:07.685Z,83.17
2019-01-17T00:58:07.671Z,83.36
2019-01-17T00:59:07.659Z,83.27
2019-01-17T01:00:07.658Z,82.79
2019-01-17T01:01:07.646Z,83.36
2019-01-17T01:02:07.637Z,83.17
2019-01-17T01:03:07.401Z,83.94
2019-01-17T01:04:07.625Z,83.55
2019-01-17T01:05:07.628Z,83.59
2019-01-17T01:06:07.596Z,83.22
2019-01-17T01:07:07.618Z,83.03
2019-01-17T01:08:07.333Z,82.55
2019-01-17T01:09:07.324Z,82.65
2019-01-17T01:10:07.309Z,82.36
2019-01-17T01:11:07.306Z,81.98
2019-01-17T01:12:07.300Z,81.98
2019-01-17T01:13:07.537Z,81.04
2019-01-17T01:14:07.292Z,81.32
2019-01-17T01:15:07.266Z,80.94
2019-01-17T01:16:07.503Z,81.51
2019-01-17T01:17:07.250Z,81.04
2019-01-17T01:18:07.278Z,80.94
2019-01-17T01:19:07.475Z,81.13
2019-01-17T01:20:07.218Z,81.32
2019-01-17T01:21:07.453Z,81.41
2019-01-17T01:22:07.456Z,82.17
2019-01-17T01:23:07.211Z,82.08
2019-01-17T01:24:07.178Z,82.21
2019-01-17T01:25:07.422Z,81.88
2019-01-17T01:26:07.422Z,81.13
2019-01-17T01:27:07.407Z,81.41
2019-01-17T01:28:07.396Z,81.6
2019-01-17T01:29:07.142Z,82.27
2019-01-17T01:30:07.132Z,82.27
2019-01-17T01:31:07.364Z,82.08
2019-01-17T01:32:07.116Z,82.27
2019-01-17T01:33:07.351Z,81.7
2019-01-17T01:34:07.115Z,81.98
2019-01-17T01:35:07.340Z,82.17
2019-01-17T01:36:07.099Z,82.55
2019-01-17T01:37:07.073Z,83.22
2019-01-17T01:38:07.312Z,83.59
2019-01-17T01:39:07.302Z,84.36
2019-01-17T01:40:07.287Z,84.92
2019-01-17T01:41:07.283Z,84.83
2019-01-17T01:42:07.017Z,85.02
2019-01-17T01:43:07.254Z,85.11
2019-01-17T01:44:07.247Z,85.59
2019-01-17T01:45:07.239Z,85.49
2019-01-17T01:46:06.988Z,85.59
2019-01-17T01:47:06.984Z,85.87
2019-01-17T01:48:07.223Z,85.49
2019-01-17T01:49:07.203Z,86.07
2019-01-17T01:50:07.190Z,85.78
2019-01-17T01:51:07.180Z,85.4
2019-01-17T01:52:06.924Z,85.87
2019-01-17T01:53:07.170Z,85.49
2019-01-17T01:54:06.923Z,85.87
2019-01-17T01:55:06.898Z,86.16
2019-01-17T01:56:06.906Z,85.97
2019-01-17T01:57:07.151Z,85.97
2019-01-17T01:58:06.869Z,86.25
2019-01-17T01:59:07.116Z,85.68
2019-01-17T02:00:07.103Z,86.25
2019-01-17T02:01:06.846Z,85.87
2019-01-17T02:02:07.116Z,85.78
2019-01-17T02:03:07.088Z,85.68
2019-01-17T02:04:07.085Z,86.07
2019-01-17T02:05:07.068Z,86.16
2019-01-17T02:06:06.804Z,85.87
2019-01-17T02:07:07.063Z,86.07
2019-01-17T02:08:07.038Z,86.54
2019-01-17T02:09:06.783Z,86.44
2019-01-17T02:10:07.022Z,86.54
2019-01-17T02:11:07.014Z,86.54
2019-01-17T02:12:07.010Z,86.54
2019-01-17T02:13:07.000Z,86.54
2019-01-17T02:14:06.741Z,86.25
2019-01-17T02:15:06.994Z,86.63
2019-01-17T02:16:06.716Z,87.01
2019-01-17T02:17:07.034Z,87.11
2019-01-17T02:18:06.956Z,87.2
2019-01-17T02:19:06.960Z,87.68
2019-01-17T02:20:06.691Z,87.49
2019-01-17T02:21:06.976Z,87.49
2019-01-17T02:22:06.699Z,87.68
2019-01-17T02:23:06.670Z,87.87
2019-01-17T02:24:06.663Z,87.68
2019-01-17T02:25:06.918Z,88.15
2019-01-17T02:26:06.637Z,88.06
2019-01-17T02:27:06.872Z,88.53
2019-01-17T02:28:06.660Z,88.62
2019-01-17T02:29:06.862Z,88.72
2019-01-17T02:30:06.861Z,88.43
2019-01-17T02:31:06.844Z,88.72
2019-01-17T02:32:06.837Z,88.72
2019-01-17T02:33:06.583Z,88.34
2019-01-17T02:34:06.829Z,88.72
2019-01-17T02:35:06.557Z,88.72
2019-01-17T02:36:06.800Z,89.29
2019-01-17T02:37:06.558Z,89
2019-01-17T02:38:06.537Z,89.29
2019-01-17T02:39:06.780Z,89.39
2019-01-17T02:40:06.543Z,89.48
2019-01-17T02:41:06.512Z,89.95
2019-01-17T02:42:06.531Z,90.14
2019-01-17T02:43:06.495Z,90.62
2019-01-17T02:44:06.727Z,90.62
2019-01-17T02:45:06.489Z,90.24
2019-01-17T02:46:06.470Z,90.33
2019-01-17T02:47:06.715Z,90.33
2019-01-17T02:48:06.457Z,90.33
2019-01-17T02:49:06.692Z,90.33
2019-01-17T02:50:06.692Z,91
2019-01-17T02:51:06.677Z,91.19
2019-01-17T02:52:06.668Z,90.81
2019-01-17T02:53:06.414Z,91
2019-01-17T02:54:06.644Z,91.19
2019-01-17T02:55:06.652Z,91.38
2019-01-17T02:56:06.633Z,91.94
2019-01-17T02:57:06.634Z,92.14
2019-01-17T02:58:06.625Z,91.85
2019-01-17T02:59:06.610Z,92.14
2019-01-17T03:00:06.600Z,92.23
2019-01-17T03:01:06.589Z,92.42
2019-01-17T03:02:06.335Z,92.42
2019-01-17T03:03:06.321Z,92.42
2019-01-17T03:04:06.573Z,93.18
2019-01-17T03:05:06.575Z,92.8
2019-01-17T03:06:06.573Z,92.99
2019-01-17T03:07:06.541Z,92.61
2019-01-17T03:08:06.552Z,92.8
2019-01-17T03:09:06.531Z,92.8
2019-01-17T03:10:06.512Z,92.8
2019-01-17T03:11:06.499Z,93.18
2019-01-17T03:12:06.493Z,92.52
2019-01-17T03:13:06.496Z,93.37
2019-01-17T03:14:06.477Z,94.03
2019-01-17T03:15:06.489Z,92.94
2019-01-17T03:16:06.473Z,92.85
2019-01-17T03:17:06.222Z,92.47
2019-01-17T03:18:06.194Z,93.75
2019-01-17T03:19:06.442Z,93.89
2019-01-17T03:20:06.423Z,93.23
2019-01-17T03:21:06.424Z,93.7
2019-01-17T03:22:06.162Z,94.37
2019-01-17T03:23:06.416Z,94.46
2019-01-17T03:24:06.394Z,93.99
2019-01-17T03:25:06.384Z,93.6
2019-01-17T03:26:06.377Z,92.94
2019-01-17T03:27:06.380Z,93.08
2019-01-17T03:28:06.354Z,92.13
2019-01-17T03:29:06.347Z,90.71
2019-01-17T03:30:06.358Z,90.61
2019-01-17T03:31:06.087Z,89.67
2019-01-17T03:32:06.330Z,89
2019-01-17T03:33:06.329Z,88.62
2019-01-17T03:34:06.325Z,88.62
2019-01-17T03:35:06.298Z,88.81
2019-01-17T03:36:06.045Z,88.62
2019-01-17T03:37:06.296Z,88.53
2019-01-17T03:38:06.033Z,88.9
2019-01-17T03:39:06.293Z,89.19
2019-01-17T03:40:06.010Z,89.47
2019-01-17T03:41:06.265Z,89.57
2019-01-17T03:42:06.244Z,90.23
2019-01-17T03:43:05.983Z,89.95
2019-01-17T03:44:06.233Z,90.14
2019-01-17T03:45:05.981Z,90.61
2019-01-17T03:46:05.963Z,90.52
2019-01-17T03:47:06.214Z,90.42
2019-01-17T03:48:05.951Z,90.42
2019-01-17T03:49:05.940Z,90.9
2019-01-17T03:50:05.942Z,90.71
2019-01-17T03:51:06.184Z,90.42
2019-01-17T03:52:06.159Z,90.61
2019-01-17T03:53:06.154Z,90.61
2019-01-17T03:54:06.149Z,90.42
2019-01-17T03:55:06.153Z,90.14
2019-01-17T03:56:06.129Z,89.86
2019-01-17T03:57:05.883Z,89.67
2019-01-17T03:58:06.113Z,90.42
2019-01-17T03:59:05.855Z,89.47
2019-01-17T04:00:06.103Z,89.76
2019-01-17T04:01:06.109Z,89.61
2019-01-17T04:02:06.081Z,89.42
2019-01-17T04:03:06.071Z,89.76
2019-01-17T04:04:06.105Z,89.61
2019-01-17T04:05:05.809Z,89.23
2019-01-17T04:06:06.072Z,89.33
2019-01-17T04:07:05.791Z,89.38
2019-01-17T04:08:05.794Z,89.33
2019-01-17T04:09:06.051Z,88.62
2019-01-17T04:10:05.775Z,88.81
2019-01-17T04:11:05.767Z,89.19
2019-01-17T04:12:05.757Z,89.28
2019-01-17T04:13:05.995Z,89.28
2019-01-17T04:14:05.748Z,89
2019-01-17T04:15:05.998Z,88.62
2019-01-17T04:16:05.973Z,89.04
2019-01-17T04:17:05.716Z,88.76
2019-01-17T04:18:05.957Z,88.76
2019-01-17T04:19:05.945Z,88.85
2019-01-17T04:20:05.946Z,87.95
2019-01-17T04:21:05.946Z,87.34
2019-01-17T04:22:05.676Z,87.43
2019-01-17T04:23:05.923Z,87.9
2019-01-17T04:24:05.909Z,88.19
2019-01-17T04:25:05.666Z,88.19
2019-01-17T04:26:05.895Z,87.81
2019-01-17T04:27:05.907Z,87.81
2019-01-17T04:28:05.922Z,87.81
2019-01-17T04:29:05.617Z,88.09
2019-01-17T04:30:05.875Z,88.09
2019-01-17T04:31:05.845Z,88.19
2019-01-17T04:32:05.851Z,86.76
2019-01-17T04:33:05.849Z,87.05
2019-01-17T04:34:05.845Z,86.76
2019-01-17T04:35:05.847Z,86.95
2019-01-17T04:36:05.839Z,87.05
2019-01-17T04:37:05.811Z,87.52
2019-01-17T04:38:05.811Z,86.86
2019-01-17T04:39:05.548Z,86.47
2019-01-17T04:40:05.820Z,86.67
2019-01-17T04:41:05.777Z,87.24
2019-01-17T04:42:05.522Z,87.24
2019-01-17T04:43:05.782Z,87.34
2019-01-17T04:44:05.771Z,87.05
2019-01-17T04:45:05.756Z,86.95
2019-01-17T04:46:05.744Z,86.95
2019-01-17T04:47:05.746Z,86.95
2019-01-17T04:48:05.735Z,87.43
2019-01-17T04:49:05.487Z,87.81
2019-01-17T04:50:05.464Z,87.81
2019-01-17T04:51:05.703Z,87.52
2019-01-17T04:52:05.695Z,87.9
2019-01-17T04:53:05.697Z,87.9
2019-01-17T04:54:05.679Z,87.52
2019-01-17T04:55:08.002Z,87.71
2019-01-17T04:56:05.663Z,87.34
2019-01-17T04:57:05.661Z,88.47
2019-01-17T04:58:05.675Z,88
2019-01-17T04:59:05.642Z,87.52
2019-01-17T05:00:05.663Z,87.52
2019-01-17T05:01:05.637Z,86.95
2019-01-17T05:02:05.399Z,87.52
2019-01-17T05:03:05.625Z,87.14
2019-01-17T05:04:05.605Z,87.52
2019-01-17T05:05:05.348Z,87.81
2019-01-17T05:06:05.334Z,87.34
2019-01-17T05:07:05.582Z,87.14
2019-01-17T05:08:05.582Z,87.34
2019-01-17T05:09:05.576Z,88.19
2019-01-17T05:10:05.308Z,88.28
2019-01-17T05:11:05.776Z,87.9
2019-01-17T05:12:05.295Z,86.95
2019-01-17T05:13:05.305Z,87.14
2019-01-17T05:14:05.537Z,87.14
2019-01-17T05:15:05.518Z,86.95
2019-01-17T05:16:05.513Z,87.05
2019-01-17T05:17:05.519Z,87.14
2019-01-17T05:18:05.513Z,87.05
2019-01-17T05:19:05.499Z,87.14
2019-01-17T05:20:05.495Z,86.95
2019-01-17T05:21:05.481Z,86.95
2019-01-17T05:22:05.224Z,86.76
2019-01-17T05:23:06.847Z,86.57
2019-01-17T05:24:05.453Z,87.52
2019-01-17T05:25:12.183Z,86.76
2019-01-17T05:26:05.447Z,86.95
2019-01-17T05:27:05.435Z,87.24
2019-01-17T05:28:05.446Z,86.57
2019-01-17T05:29:05.170Z,86.47
2019-01-17T05:30:05.167Z,86.76
2019-01-17T05:31:06.219Z,87.14
2019-01-17T05:32:05.405Z,86.38
2019-01-17T05:33:05.420Z,86.76
2019-01-17T05:34:05.395Z,87.05
2019-01-17T05:35:05.383Z,87.05
2019-01-17T05:36:05.122Z,86.47
2019-01-17T05:37:05.364Z,86.86
2019-01-17T05:38:05.356Z,87.05
2019-01-17T05:39:05.346Z,87.14
2019-01-17T05:40:05.341Z,86.47
2019-01-17T05:41:05.343Z,86.86
2019-01-17T05:42:05.326Z,86.76
2019-01-17T05:43:05.313Z,86.67
2019-01-17T05:44:05.313Z,86.95
2019-01-17T05:45:05.306Z,87.24
2019-01-17T05:46:05.320Z,86.95
2019-01-17T05:47:05.287Z,87.14
2019-01-17T05:48:05.281Z,87.14
2019-01-17T05:49:05.273Z,87.34
2019-01-17T05:50:05.030Z,87.81
2019-01-17T05:51:05.259Z,87.9
2019-01-17T05:52:05.251Z,87.9
2019-01-17T05:53:05.244Z,88.09
2019-01-17T05:54:05.247Z,88.19
2019-01-17T05:55:05.256Z,87.52
2019-01-17T05:56:05.237Z,88.28
2019-01-17T05:57:05.210Z,88.09
2019-01-17T05:58:05.207Z,88.95
2019-01-17T05:59:05.206Z,89.71
2019-01-17T06:00:05.194Z,89.71
2019-01-17T06:01:05.192Z,89.09
2019-01-17T06:02:05.188Z,89
2019-01-17T06:03:05.169Z,87.95
2019-01-17T06:04:05.173Z,87.62
2019-01-17T06:05:05.165Z,86.95
2019-01-17T06:06:05.179Z,87.38
2019-01-17T06:07:05.156Z,88.13
2019-01-17T06:08:04.886Z,87.81
2019-01-17T06:09:04.882Z,88.09
2019-01-17T06:10:05.145Z,88
2019-01-17T06:11:05.113Z,88
2019-01-17T06:12:04.875Z,88.09
2019-01-17T06:13:05.113Z,87.81
2019-01-17T06:14:05.105Z,87.81
2019-01-17T06:15:05.106Z,88.47
2019-01-17T06:16:05.107Z,88.47
2019-01-17T06:17:05.080Z,88.09
2019-01-17T06:18:04.851Z,88.28
2019-01-17T06:19:05.060Z,88.09
2019-01-17T06:20:05.058Z,88.47
2019-01-17T06:21:04.803Z,88.47
2019-01-17T06:22:04.795Z,88.19
2019-01-17T06:23:05.066Z,88.09
2019-01-17T06:24:05.044Z,88.13
2019-01-17T06:25:05.043Z,87.47
2019-01-17T06:26:04.773Z,86.71
2019-01-17T06:27:05.005Z,87.09
2019-01-17T06:28:04.822Z,86.99
2019-01-17T06:29:04.747Z,87.66
2019-01-17T06:30:04.982Z,87.28
2019-01-17T06:31:04.744Z,87.95
2019-01-17T06:32:04.974Z,87.85
2019-01-17T06:33:04.715Z,88.33
2019-01-17T06:34:04.707Z,87.85
2019-01-17T06:35:04.962Z,88.04
2019-01-17T06:36:04.722Z,87.85
2019-01-17T06:37:04.679Z,87.85
2019-01-17T06:38:04.673Z,87.66
2019-01-17T06:39:04.919Z,87.66
2019-01-17T06:40:04.670Z,87.66
2019-01-17T06:41:04.653Z,87.19
2019-01-17T06:42:04.915Z,87.85
2019-01-17T06:43:04.929Z,87.95
2019-01-17T06:44:04.644Z,87.95
2019-01-17T06:45:04.913Z,88.13
2019-01-17T06:46:04.866Z,87.57
2019-01-17T06:47:04.627Z,87.95
2019-01-17T06:49:04.627Z,87.57
2019-01-17T06:50:04.584Z,87.19
2019-01-17T06:51:04.829Z,87.66
2019-01-17T06:52:04.582Z,87.66
2019-01-17T06:53:04.819Z,87.95
2019-01-17T06:54:04.804Z,87.85
2019-01-17T06:55:04.807Z,87.47
2019-01-17T06:56:04.796Z,87.76
2019-01-17T06:57:04.537Z,87.47
2019-01-17T06:58:04.798Z,88.04
2019-01-17T06:59:04.772Z,87.85
2019-01-17T07:00:04.787Z,88.13
2019-01-17T07:01:04.761Z,87.95
2019-01-17T07:02:04.755Z,87.47
2019-01-17T07:03:04.497Z,87.09
2019-01-17T07:04:04.495Z,87.19
2019-01-17T07:05:04.731Z,86.85
2019-01-17T07:06:04.717Z,86.28
2019-01-17T07:07:04.730Z,87.04
2019-01-17T07:08:04.706Z,87.13
2019-01-17T07:09:04.717Z,87.23
2019-01-17T07:10:04.699Z,87.04
2019-01-17T07:11:04.690Z,87.23
2019-01-17T07:12:04.681Z,87.32
2019-01-17T07:13:04.430Z,87.04
2019-01-17T07:14:04.667Z,86.57
2019-01-17T07:15:04.665Z,86.66
2019-01-17T07:16:04.399Z,86.66
2019-01-17T07:17:04.663Z,86.85
2019-01-17T07:18:04.639Z,87.23
2019-01-17T07:19:04.387Z,87.32
2019-01-17T07:20:04.634Z,87.13
2019-01-17T07:21:04.367Z,87.8
2019-01-17T07:22:04.392Z,87.9
2019-01-17T07:23:04.358Z,87.9
2019-01-17T07:24:04.612Z,88.18
2019-01-17T07:25:04.344Z,87.71
2019-01-17T07:26:04.347Z,88.28
2019-01-17T07:27:04.342Z,88.28
2019-01-17T07:28:04.565Z,88.75
2019-01-17T07:29:04.322Z,88.94
2019-01-17T07:30:04.563Z,88.75
2019-01-17T07:31:04.310Z,88.94
2019-01-17T07:32:04.294Z,89.04
2019-01-17T07:33:04.283Z,89.61
2019-01-17T07:34:04.527Z,89.8
2019-01-17T07:35:04.292Z,89.42
2019-01-17T07:36:04.272Z,89.14
2019-01-17T07:37:04.502Z,89.14
2019-01-17T07:38:04.256Z,88.94
2019-01-17T07:39:04.266Z,88.94
2019-01-17T07:40:04.506Z,88.56
2019-01-17T07:41:04.243Z,88.75
2019-01-17T07:42:04.474Z,88.94
2019-01-17T07:43:04.223Z,88.94
2019-01-17T07:44:04.469Z,88.94
2019-01-17T07:45:04.455Z,88.94
2019-01-17T07:46:04.445Z,88.66
2019-01-17T07:47:04.187Z,89.23
2019-01-17T07:48:04.443Z,89.32
2019-01-17T07:49:04.183Z,88.66
2019-01-17T07:50:04.431Z,89.32
2019-01-17T07:51:04.411Z,89.42
2019-01-17T07:52:04.159Z,89.42
2019-01-17T07:53:04.151Z,88.94
2019-01-17T07:54:04.387Z,89.04
2019-01-17T07:55:04.387Z,88.28
2019-01-17T07:56:04.375Z,88.18
2019-01-17T07:57:04.125Z,88.28
2019-01-17T07:58:04.362Z,88.85
2019-01-17T07:59:04.361Z,88.37
2019-01-17T08:00:04.353Z,88.28
2019-01-17T08:01:04.107Z,88.75
2019-01-17T08:02:04.341Z,88.75
2019-01-17T08:03:04.082Z,88.94
2019-01-17T08:04:04.328Z,88.75
2019-01-17T08:05:04.329Z,89.23
2019-01-17T08:06:04.314Z,89.32
2019-01-17T08:07:04.309Z,89.42
2019-01-17T08:08:04.055Z,89.23
2019-01-17T08:09:04.040Z,89.14
2019-01-17T08:10:04.032Z,88.75
2019-01-17T08:11:04.030Z,88.75
2019-01-17T08:12:07.589Z,89.14
2019-01-17T08:13:04.010Z,89.42
2019-01-17T08:14:04.005Z,89.32
2019-01-17T08:15:03.999Z,89.32
2019-01-17T08:16:04.244Z,89.14
2019-01-17T08:17:04.234Z,88.94
2019-01-17T08:18:04.007Z,89.61
2019-01-17T08:19:04.226Z,89.99
2019-01-17T08:20:04.226Z,89.61
2019-01-17T08:21:03.964Z,89.42
2019-01-17T08:22:04.214Z,89.8
2019-01-17T08:23:03.960Z,89.89
2019-01-17T08:24:04.188Z,90.08
2019-01-17T08:25:03.933Z,89.99
2019-01-17T08:26:04.188Z,89.99
2019-01-17T08:27:04.181Z,90.66
2019-01-17T08:28:03.913Z,90.47
2019-01-17T08:29:04.173Z,89.99
2019-01-17T08:30:04.147Z,89.51
2019-01-17T08:31:04.147Z,89.8
2019-01-17T08:32:03.894Z,89.51
2019-01-17T08:33:04.133Z,90.37
2019-01-17T08:34:04.123Z,90.75
2019-01-17T08:35:04.124Z,90.66
2019-01-17T08:36:04.109Z,90.66
2019-01-17T08:37:04.100Z,90.47
2019-01-17T08:38:04.106Z,90.47
2019-01-17T08:39:03.843Z,90.84
2019-01-17T08:40:03.836Z,90.94
2019-01-17T08:41:04.074Z,90.94
2019-01-17T08:42:03.828Z,90.94
2019-01-17T08:43:03.832Z,90.84
2019-01-17T08:44:04.053Z,90.66
2019-01-17T08:45:04.070Z,90.56
2019-01-17T08:46:04.049Z,90.37
2019-01-17T08:47:04.052Z,91.22
2019-01-17T08:48:04.031Z,91.03
2019-01-17T08:49:03.788Z,91.13
2019-01-17T08:50:04.026Z,90.56
2019-01-17T08:51:04.028Z,90.56
2019-01-17T08:52:04.010Z,90.56
2019-01-17T08:53:04.014Z,91.03
2019-01-17T08:54:03.985Z,90.66
2019-01-17T08:55:03.737Z,90.84
2019-01-17T08:56:03.978Z,90.66
2019-01-17T08:57:03.976Z,91.13
2019-01-17T08:58:03.973Z,90.66
2019-01-17T08:59:03.719Z,90.84
2019-01-17T09:00:03.973Z,90.66
2019-01-17T09:01:03.946Z,91.03
2019-01-17T09:02:03.942Z,90.84
2019-01-17T09:03:03.950Z,91.61
2019-01-17T09:04:03.929Z,91.42
2019-01-17T09:05:03.670Z,91.51
2019-01-17T09:06:03.916Z,91.89
2019-01-17T09:07:03.657Z,92.08
2019-01-17T09:08:03.954Z,92.36
2019-01-17T09:09:04.012Z,92.08
2019-01-17T09:10:03.892Z,92.36
2019-01-17T09:11:03.880Z,92.65
2019-01-17T09:12:03.627Z,92.56
2019-01-17T09:13:03.871Z,92.46
2019-01-17T09:14:03.614Z,92.89
2019-01-17T09:15:03.867Z,93.13
2019-01-17T09:16:03.852Z,93.41
2019-01-17T09:17:03.871Z,94.08
2019-01-17T09:18:03.612Z,93.18
2019-01-17T09:19:03.843Z,94.27
2019-01-17T09:20:03.840Z,94.08
2019-01-17T09:21:03.837Z,94.27
2019-01-17T09:22:03.824Z,94.89
2019-01-17T09:23:03.821Z,94.6
2019-01-17T09:24:03.557Z,94.74
2019-01-17T09:25:03.807Z,94.84
2019-01-17T09:26:09.864Z,94.84
2019-01-17T09:27:03.793Z,95.22
2019-01-17T09:28:03.781Z,95.03
2019-01-17T09:29:03.772Z,95.98
2019-01-17T09:30:03.770Z,96.36
2019-01-17T09:31:03.512Z,95.51
2019-01-17T09:32:03.764Z,95.89
2019-01-17T09:33:03.749Z,96.26
2019-01-17T09:34:03.762Z,95.7
2019-01-17T09:35:03.512Z,96.7
2019-01-17T09:36:03.729Z,96.36
2019-01-17T09:37:03.723Z,95.7
2019-01-17T09:38:03.784Z,95.41
2019-01-17T09:39:03.728Z,95.89
2019-01-17T09:40:03.706Z,96.36
2019-01-17T09:41:03.451Z,96.55
2019-01-17T09:42:03.692Z,95.7
2019-01-17T09:43:03.696Z,95.79
2019-01-17T09:44:03.456Z,94.46
2019-01-17T09:45:03.681Z,94.93
2019-01-17T09:46:03.425Z,94.65
2019-01-17T09:47:03.422Z,95.32
2019-01-17T09:48:04.504Z,96.08
2019-01-17T09:49:03.400Z,95.22
2019-01-17T09:50:03.641Z,94.93
2019-01-17T09:51:03.638Z,95.41
2019-01-17T09:52:03.386Z,95.6
2019-01-17T09:53:03.641Z,95.51
2019-01-17T09:54:03.619Z,95.79
2019-01-17T09:55:03.624Z,95.79
2019-01-17T09:56:03.635Z,95.51
2019-01-17T09:57:03.617Z,95.41
2019-01-17T09:58:03.347Z,95.41
2019-01-17T09:59:03.355Z,95.32
2019-01-17T10:00:03.348Z,94.74
2019-01-17T10:01:03.571Z,94.74
2019-01-17T10:02:03.572Z,94.65
2019-01-17T10:03:03.573Z,94.65
2019-01-17T10:04:03.567Z,94.08
2019-01-17T10:05:03.569Z,94.08
2019-01-17T10:06:03.546Z,94.18
2019-01-17T10:07:03.548Z,93.98
2019-01-17T10:08:03.283Z,94.18
2019-01-17T10:09:03.526Z,93.79
2019-01-17T10:10:03.546Z,93.79
2019-01-17T10:11:03.541Z,94.42
2019-01-17T10:12:03.511Z,92.51
2019-01-17T10:13:03.567Z,92.7
2019-01-17T10:14:03.490Z,92.7
2019-01-17T10:15:03.244Z,92.89
2019-01-17T10:16:03.487Z,92.79
2019-01-17T10:17:03.230Z,92.7
2019-01-17T10:18:03.477Z,91.75
2019-01-17T10:19:03.217Z,91.94
2019-01-17T10:20:03.467Z,91.08
2019-01-17T10:21:03.216Z,90.61
2019-01-17T10:22:03.481Z,90.61
2019-01-17T10:23:03.441Z,90.32
2019-01-17T10:24:03.439Z,90.61
2019-01-17T10:25:03.435Z,90.42
2019-01-17T10:26:03.426Z,89.94
2019-01-17T10:27:03.417Z,89.84
2019-01-17T10:28:03.408Z,88.23
2019-01-17T10:29:03.412Z,87.75
2019-01-17T10:30:03.165Z,88.13
2019-01-17T10:31:03.388Z,88.32
2019-01-17T10:32:03.402Z,87.65
2019-01-17T10:33:03.384Z,87.65
2019-01-17T10:34:03.394Z,85.94
2019-01-17T10:35:03.119Z,85.94
2019-01-17T10:36:03.138Z,86.13
2019-01-17T10:37:03.357Z,86.04
2019-01-17T10:38:03.355Z,86.22
2019-01-17T10:39:03.342Z,85.66
2019-01-17T10:40:03.334Z,85.56
2019-01-17T10:41:03.091Z,84.8
2019-01-17T10:42:03.323Z,84.42
2019-01-17T10:43:03.320Z,84.66
2019-01-17T10:44:03.316Z,84.7
2019-01-17T10:45:03.311Z,83.94
2019-01-17T10:46:03.058Z,84.61
2019-01-17T10:47:03.292Z,84.61
2019-01-17T10:48:03.292Z,84.61
2019-01-17T10:49:03.288Z,85.08
2019-01-17T10:50:03.034Z,85.37
2019-01-17T10:51:03.022Z,84.7
2019-01-17T10:52:03.269Z,84.89
2019-01-17T10:53:03.010Z,85.99
2019-01-17T10:54:03.256Z,85.14
2019-01-17T10:55:02.999Z,85.8
2019-01-17T10:56:03.238Z,85.9
2019-01-17T10:57:03.238Z,85.99
2019-01-17T10:58:02.987Z,85.33
2019-01-17T10:59:02.972Z,85.99
2019-01-17T11:00:03.247Z,85.52
2019-01-17T11:01:02.955Z,86.18
2019-01-17T11:02:03.200Z,86.38
2019-01-17T11:03:03.193Z,85.9
2019-01-17T11:04:02.947Z,85.99
2019-01-17T11:05:03.193Z,86.09
2019-01-17T11:06:02.949Z,85.8
2019-01-17T11:07:03.185Z,85.71
2019-01-17T11:08:03.166Z,85.9
2019-01-17T11:09:03.165Z,86.18
2019-01-17T11:10:02.902Z,86.18
2019-01-17T11:11:02.923Z,85.71
2019-01-17T11:12:02.892Z,85.52
2019-01-17T11:13:02.888Z,85.61
2019-01-17T11:14:03.138Z,85.75
2019-01-17T11:15:03.130Z,85.47
2019-01-17T11:16:03.121Z,85.47
2019-01-17T11:17:02.874Z,84.8
2019-01-17T11:18:02.880Z,84.95
2019-01-17T11:19:03.108Z,84.66
2019-01-17T11:20:03.092Z,84.85
2019-01-17T11:21:03.089Z,86.09
2019-01-17T11:22:02.850Z,85.8
2019-01-17T11:23:03.072Z,85.94
2019-01-17T11:24:03.076Z,86.22
2019-01-17T11:25:04.767Z,85.56
2019-01-17T11:26:03.063Z,84.89
2019-01-17T11:27:03.057Z,84.89
2019-01-17T11:28:03.041Z,84.52
2019-01-17T11:29:03.031Z,84.13
2019-01-17T11:30:03.046Z,84.23
2019-01-17T11:31:03.036Z,84.23
2019-01-17T11:32:03.019Z,84.61
2019-01-17T11:33:03.023Z,83.65
2019-01-17T11:34:03.015Z,83.28
2019-01-17T11:35:03.007Z,83.47
2019-01-17T11:36:03.000Z,83.47
2019-01-17T11:37:02.747Z,83.47
2019-01-17T11:38:02.755Z,83.47
2019-01-17T11:39:02.990Z,83.75
2019-01-17T11:40:02.990Z,83.94
2019-01-17T11:41:02.984Z,83.65
2019-01-17T11:42:02.710Z,83.47
2019-01-17T11:43:02.961Z,83.56
2019-01-17T11:44:02.711Z,83.65
2019-01-17T11:45:02.704Z,82.99
2019-01-17T11:46:02.965Z,82.99
2019-01-17T11:47:02.952Z,83.47
2019-01-17T11:48:02.935Z,83.56
2019-01-17T11:49:02.960Z,82.99
2019-01-17T11:50:02.939Z,83.37
2019-01-17T11:51:02.922Z,83.37
2019-01-17T11:52:02.920Z,83.47
2019-01-17T11:53:02.923Z,84.89
2019-01-17T11:54:02.676Z,85.18
2019-01-17T11:55:02.646Z,85.66
2019-01-17T11:56:02.651Z,86.22
2019-01-17T11:57:03.120Z,86.22
2019-01-17T11:58:02.629Z,86.04
2019-01-17T11:59:02.879Z,86.61
2019-01-17T12:00:02.874Z,86.32
2019-01-17T12:01:02.862Z,86.7
2019-01-17T12:02:02.607Z,86.9
2019-01-17T12:03:02.859Z,86.9
2019-01-17T12:04:02.852Z,87.27
2019-01-17T12:05:02.593Z,87.08
2019-01-17T12:06:02.842Z,87.08
2019-01-17T12:07:02.831Z,86.9
2019-01-17T12:08:02.576Z,87.9
2019-01-17T12:09:02.574Z,87.42
2019-01-17T12:10:02.829Z,86.85
2019-01-17T12:11:02.815Z,87.61
2019-01-17T12:12:02.828Z,88.09
2019-01-17T12:13:02.794Z,88.56
2019-01-17T12:14:02.546Z,89.89
2019-01-17T12:15:02.781Z,91.7
2019-01-17T12:16:02.787Z,92.08
2019-01-17T12:17:02.771Z,92.94
2019-01-17T12:18:02.780Z,92.94
2019-01-17T12:19:02.517Z,93.32
2019-01-17T12:20:02.766Z,92.84
2019-01-17T12:21:02.752Z,93.55
2019-01-17T12:22:02.502Z,92.61
2019-01-17T12:23:02.772Z,93.23
2019-01-17T12:24:02.483Z,93.89
2019-01-17T12:25:02.737Z,93.41
2019-01-17T12:26:02.734Z,92.99
2019-01-17T12:27:02.724Z,93.55
2019-01-17T12:28:02.464Z,92.99
2019-01-17T12:29:02.756Z,93.23
2019-01-17T12:30:02.693Z,93.04
2019-01-17T12:31:02.713Z,92.46
2019-01-17T12:32:02.694Z,92.56
2019-01-17T12:33:02.693Z,92.65
2019-01-17T12:34:02.673Z,92.94
2019-01-17T12:35:02.427Z,90.66
2019-01-17T12:36:02.409Z,88.94
2019-01-17T12:37:02.649Z,89.8
2019-01-17T12:38:02.397Z,89.89
2019-01-17T12:39:02.644Z,90.18
2019-01-17T12:40:02.629Z,89.61
2019-01-17T12:41:02.627Z,89.32
2019-01-17T12:42:02.625Z,88.56
2019-01-17T12:43:02.623Z,88.09
2019-01-17T12:44:02.610Z,86.85
2019-01-17T12:45:02.612Z,85.24
2019-01-17T12:46:02.350Z,85.04
2019-01-17T12:47:02.609Z,84.66
2019-01-17T12:48:02.590Z,84.85
2019-01-17T12:49:02.580Z,85.04
2019-01-17T12:50:02.575Z,84.56
2019-01-17T12:51:02.577Z,83.9
2019-01-17T12:52:02.559Z,84.76
2019-01-17T12:53:02.311Z,83.71
2019-01-17T12:54:02.557Z,83.23
2019-01-17T12:55:02.545Z,83.42
2019-01-17T12:56:02.290Z,83.33